Time,TemperatureF,DewpointF,PressureIn,WindDirection,WindDirectionDegrees,WindSpeedMPH,WindSpeedGustMPH,Humidity,HourlyPrecipIn,Conditions,Clouds,dailyrainin,SoftwareType,DateUTC
2013-11-01 00:03:00,42.0,42.0,29.34,WSW,247,5.9,10.4,100,0.00,RA,,0.00,WeatherDisplay:10.37,2013-11-01 05:03:00,
2013-11-01 00:08:00,42.0,42.0,29.34,WNW,290,4.2,12.7,100,0.00,RA,,0.00,WeatherDisplay:10.37,2013-11-01 05:08:00,
2013-11-01 00:13:00,41.7,41.7,29.34,West,277,7.3,13.8,100,0.00,OVC,,0.00,WeatherDisplay:10.37,2013-11-01 05:13:00,
2013-11-01 00:18:00,41.9,41.9,29.34,WSW,243,5.9,8.8,100,0.00,OVC,,0.00,WeatherDisplay:10.37,2013-11-01 05:18:00,
2013-11-01 00:23:00,41.9,41.9,29.34,West,280,6.6,11.5,100,0.00,OVC,,0.00,WeatherDisplay:10.37,2013-11-01 05:23:00,
2013-11-01 00:28:00,42.0,42.0,29.34,WNW,300,4.9,8.1,100,0.00,OVC,,0.00,WeatherDisplay:10.37,2013-11-01 05:28:00,
2013-11-01 00:33:00,41.9,41.9,29.34,West,267,6.8,10.4,100,0.00,OVC,,0.00,WeatherDisplay:10.37,2013-11-01 05:33:00,
2013-11-01 00:38:00,41.9,41.9,29.35,NNW,333,4.4,6.9,100,0.00,OVC,,0.00,WeatherDisplay:10.37,2013-11-01 05:38:00,
2013-11-01 00:43:00,42.0,42.0,29.35,West,271,4.8,6.9,100,0.00,OVC,,0.00,WeatherDisplay:10.37,2013-11-01 05:43:00,
2013-11-01 00:45:00,42.0,42.0,29.35,SW,232,5.0,8.0,100,0.00,OVC,,0.00,WeatherDisplay:10.37,2013-11-01 05:45:00,
2013-11-01 00:50:00,41.9,41.9,29.35,SSW,212,6.1,12.7,100,0.00,OVC,,0.00,WeatherDisplay:10.37,2013-11-01 05:50:00,
2013-11-01 00:55:00,42.0,42.0,29.35,West,274,4.5,9.2,100,0.00,OVC,,0.00,WeatherDisplay:10.37,2013-11-01 05:55:00,
2013-11-01 01:00:00,41.7,41.7,29.35,WNW,290,8.3,12.7,100,0.00,OVC,,0.00,WeatherDisplay:10.37,2013-11-01 06:00:00,
2013-11-01 01:05:00,41.6,41.6,29.35,West,273,7.4,17.3,100,0.00,OVC,,0.00,WeatherDisplay:10.37,2013-11-01 06:05:00,
2013-11-01 01:10:00,41.6,41.6,29.36,WNW,288,5.8,11.5,100,0.00,OVC,,0.00,WeatherDisplay:10.37,2013-11-01 06:10:00,
2013-11-01 01:15:00,41.7,41.7,29.35,WNW,295,6.5,10.4,100,0.00,OVC,,0.00,WeatherDisplay:10.37,2013-11-01 06:15:00,
2013-11-01 01:20:00,41.8,41.8,29.36,West,274,7.9,10.4,100,0.00,OVC,,0.00,WeatherDisplay:10.37,2013-11-01 06:20:00,
2013-11-01 01:25:00,41.7,41.7,29.36,NW,308,6.1,16.1,100,0.00,OVC,,0.00,WeatherDisplay:10.37,2013-11-01 06:25:00,
2013-11-01 01:30:00,41.3,41.3,29.36,West,264,7.2,9.2,100,0.00,OVC,,0.00,WeatherDisplay:10.37,2013-11-01 06:30:00,
2013-11-01 01:35:00,41.4,41.4,29.36,NW,321,9.2,13.8,100,0.00,OVC,,0.00,WeatherDisplay:10.37,2013-11-01 06:35:00,
2013-11-01 01:40:00,41.4,41.4,29.36,WNW,283,4.4,10.6,100,0.00,OVC,,0.00,WeatherDisplay:10.37,2013-11-01 06:40:00,
2013-11-01 01:45:00,41.3,41.3,29.36,WSW,253,6.5,10.4,100,0.00,OVC,,0.00,WeatherDisplay:10.37,2013-11-01 06:45:00,
2013-11-01 01:50:00,41.3,41.3,29.36,West,268,5.4,10.4,100,0.00,OVC,,0.00,WeatherDisplay:10.37,2013-11-01 06:50:00,
2013-11-01 01:55:00,41.1,41.1,29.36,North,353,4.8,9.2,100,0.00,OVC,,0.00,WeatherDisplay:10.37,2013-11-01 06:55:00,
2013-11-01 02:00:00,41.3,41.3,29.37,WNW,285,6.5,10.4,100,0.00,OVC,,0.00,WeatherDisplay:10.37,2013-11-01 07:00:00,
2013-11-01 02:05:00,41.0,41.0,29.37,West,268,6.2,10.1,100,0.00,OVC,,0.00,WeatherDisplay:10.37,2013-11-01 07:05:00,
2013-11-01 02:10:00,41.1,41.1,29.37,NW,326,4.6,7.3,100,0.00,OVC,,0.00,WeatherDisplay:10.37,2013-11-01 07:10:00,
2013-11-01 02:15:00,41.1,41.1,29.37,WNW,288,6.6,10.4,100,0.00,OVC,,0.00,WeatherDisplay:10.37,2013-11-01 07:15:00,
2013-11-01 02:20:00,41.0,41.0,29.37,NNW,329,6.9,10.4,100,0.00,OVC,,0.00,WeatherDisplay:10.37,2013-11-01 07:20:00,
2013-11-01 02:25:00,40.9,40.9,29.37,NW,322,7.1,10.4,100,0.00,OVC,,0.00,WeatherDisplay:10.37,2013-11-01 07:25:00,
2013-11-01 02:30:00,40.9,40.9,29.37,WNW,291,6.8,9.2,100,0.00,OVC,,0.00,WeatherDisplay:10.37,2013-11-01 07:30:00,
2013-11-01 02:35:00,40.9,40.9,29.38,WSW,240,5.8,9.2,100,0.00,OVC,,0.00,WeatherDisplay:10.37,2013-11-01 07:35:00,
2013-11-01 02:40:00,40.7,40.7,29.38,WSW,252,7.3,12.7,100,0.00,OVC,,0.00,WeatherDisplay:10.37,2013-11-01 07:40:00,
2013-11-01 02:45:00,40.6,40.6,29.38,WSW,256,6.9,10.4,100,0.00,OVC,,0.00,WeatherDisplay:10.37,2013-11-01 07:45:00,
2013-11-01 02:50:00,40.7,40.7,29.38,WNW,288,4.8,6.5,100,0.00,OVC,,0.00,WeatherDisplay:10.37,2013-11-01 07:50:00,
2013-11-01 02:55:00,40.7,40.7,29.38,WNW,291,3.7,10.4,100,0.00,OVC,,0.00,WeatherDisplay:10.37,2013-11-01 07:55:00,
2013-11-01 03:00:00,40.5,40.5,29.38,West,264,8.3,12.7,100,0.00,OVC,,0.00,WeatherDisplay:10.37,2013-11-01 08:00:00,
2013-11-01 03:05:00,40.8,40.8,29.39,West,281,5.3,9.2,100,0.00,OVC,,0.00,WeatherDisplay:10.37,2013-11-01 08:05:00,
2013-11-01 03:10:00,40.4,40.4,29.39,West,274,6.3,8.1,100,0.00,OVC,,0.00,WeatherDisplay:10.37,2013-11-01 08:10:00,
2013-11-01 03:15:00,40.5,40.5,29.39,WSW,257,6.7,13.8,100,0.00,OVC,,0.00,WeatherDisplay:10.37,2013-11-01 08:15:00,
2013-11-01 03:20:00,40.4,40.4,29.39,WNW,285,7.1,9.2,100,0.00,OVC,,0.00,WeatherDisplay:10.37,2013-11-01 08:20:00,
2013-11-01 03:25:00,40.5,40.5,29.39,West,268,5.9,12.1,100,0.00,OVC,,0.00,WeatherDisplay:10.37,2013-11-01 08:25:00,
2013-11-01 03:30:00,40.5,40.5,29.39,WNW,288,5.2,7.3,100,0.00,OVC,,0.00,WeatherDisplay:10.37,2013-11-01 08:30:00,
2013-11-01 03:35:00,40.7,40.7,29.39,NW,315,3.8,8.1,100,0.00,OVC,,0.00,WeatherDisplay:10.37,2013-11-01 08:35:00,
2013-11-01 03:40:00,40.4,40.4,29.39,WSW,249,8.2,13.8,100,0.00,OVC,,0.00,WeatherDisplay:10.37,2013-11-01 08:40:00,
2013-11-01 03:45:00,40.4,40.4,29.39,WNW,290,6.8,9.2,100,0.00,OVC,,0.00,WeatherDisplay:10.37,2013-11-01 08:45:00,
2013-11-01 03:50:00,40.3,40.3,29.39,WSW,246,6.4,16.1,100,0.00,OVC,,0.00,WeatherDisplay:10.37,2013-11-01 08:50:00,
2013-11-01 03:55:00,40.2,40.2,29.39,SW,215,5.8,8.1,100,0.00,OVC,,0.00,WeatherDisplay:10.37,2013-11-01 08:55:00,
2013-11-01 04:00:00,40.4,40.4,29.39,WSW,240,6.2,9.2,100,0.00,OVC,,0.00,WeatherDisplay:10.37,2013-11-01 09:00:00,
2013-11-01 04:05:00,40.4,40.4,29.40,WNW,287,5.8,10.4,100,0.00,OVC,,0.00,WeatherDisplay:10.37,2013-11-01 09:05:00,
2013-11-01 04:10:00,40.3,40.3,29.40,West,276,9.6,11.8,100,0.00,OVC,,0.00,WeatherDisplay:10.37,2013-11-01 09:10:00,
2013-11-01 04:15:00,40.1,40.1,29.40,NW,311,7.6,12.7,100,0.00,OVC,,0.00,WeatherDisplay:10.37,2013-11-01 09:15:00,
2013-11-01 04:20:00,40.2,40.2,29.40,WSW,237,7.4,10.4,100,0.00,OVC,,0.00,WeatherDisplay:10.37,2013-11-01 09:20:00,
2013-11-01 04:25:00,40.0,40.0,29.40,West,274,8.0,11.6,100,0.00,OVC,,0.00,WeatherDisplay:10.37,2013-11-01 09:25:00,
2013-11-01 04:30:00,40.5,40.5,29.39,NW,315,3.8,9.0,100,0.00,OVC,,0.00,WeatherDisplay:10.37,2013-11-01 09:30:00,
2013-11-01 04:35:00,40.1,40.1,29.40,WNW,291,6.3,12.7,100,0.00,OVC,,0.00,WeatherDisplay:10.37,2013-11-01 09:35:00,
2013-11-01 04:40:00,40.2,40.2,29.40,WSW,246,5.1,11.5,100,0.00,OVC,,0.00,WeatherDisplay:10.37,2013-11-01 09:40:00,
2013-11-01 04:45:00,40.2,40.2,29.40,West,271,5.5,12.7,100,0.00,OVC,,0.00,WeatherDisplay:10.37,2013-11-01 09:45:00,
2013-11-01 04:50:00,40.2,40.2,29.40,WSW,253,5.8,11.5,100,0.00,OVC,,0.00,WeatherDisplay:10.37,2013-11-01 09:50:00,
2013-11-01 04:55:00,40.0,40.0,29.41,NW,321,5.2,13.8,100,0.00,OVC,,0.00,WeatherDisplay:10.37,2013-11-01 09:55:00,
2013-11-01 05:00:00,39.9,39.9,29.41,NW,308,8.8,11.5,100,0.00,OVC,,0.00,WeatherDisplay:10.37,2013-11-01 10:00:00,
2013-11-01 05:05:00,40.1,40.1,29.41,WNW,295,7.4,12.7,100,0.00,OVC,,0.00,WeatherDisplay:10.37,2013-11-01 10:05:00,
2013-11-01 05:10:00,40.1,40.1,29.41,NE,45,3.2,4.6,100,0.00,OVC,,0.00,WeatherDisplay:10.37,2013-11-01 10:10:00,
2013-11-01 05:15:00,40.2,40.2,29.42,WNW,295,7.3,9.2,100,0.00,OVC,,0.00,WeatherDisplay:10.37,2013-11-01 10:15:00,
2013-11-01 05:20:00,40.2,40.2,29.42,WNW,284,6.4,11.5,100,0.00,OVC,,0.00,WeatherDisplay:10.37,2013-11-01 10:20:00,
2013-11-01 05:25:00,40.0,40.0,29.42,WNW,288,7.8,11.5,100,0.00,OVC,,0.00,WeatherDisplay:10.37,2013-11-01 10:25:00,
2013-11-01 05:30:00,40.1,40.1,29.42,West,280,6.4,9.2,100,0.00,OVC,,0.00,WeatherDisplay:10.37,2013-11-01 10:30:00,
2013-11-01 05:35:00,40.3,40.3,29.42,SSE,147,4.3,12.7,100,0.00,OVC,,0.00,WeatherDisplay:10.37,2013-11-01 10:35:00,
2013-11-01 05:40:00,40.0,40.0,29.43,West,281,5.6,9.2,100,0.00,OVC,,0.00,WeatherDisplay:10.37,2013-11-01 10:40:00,
2013-11-01 05:45:00,40.3,40.3,29.43,WNW,300,5.6,10.4,100,0.00,OVC,,0.00,WeatherDisplay:10.37,2013-11-01 10:45:00,
2013-11-01 05:50:00,40.4,40.4,29.43,West,268,4.3,7.1,100,0.00,OVC,,0.00,WeatherDisplay:10.37,2013-11-01 10:50:00,
2013-11-01 05:55:00,40.3,40.3,29.43,SSW,201,4.6,8.1,100,0.00,OVC,,0.00,WeatherDisplay:10.37,2013-11-01 10:55:00,
2013-11-01 06:00:00,40.4,40.4,29.43,SSW,201,7.5,11.5,100,0.00,OVC,,0.00,WeatherDisplay:10.37,2013-11-01 11:00:00,
2013-11-01 06:05:00,40.4,40.4,29.44,West,270,6.4,9.2,100,0.00,OVC,,0.00,WeatherDisplay:10.37,2013-11-01 11:05:00,
2013-11-01 06:10:00,40.3,40.3,29.44,West,266,2.9,6.9,100,0.00,OVC,,0.00,WeatherDisplay:10.37,2013-11-01 11:10:00,
2013-11-01 06:15:00,40.4,40.4,29.44,West,268,4.3,6.9,100,0.00,OVC,,0.00,WeatherDisplay:10.37,2013-11-01 11:15:00,
2013-11-01 06:20:00,40.4,40.4,29.44,West,268,6.0,11.5,100,0.00,OVC,,0.00,WeatherDisplay:10.37,2013-11-01 11:20:00,
2013-11-01 06:25:00,40.4,40.4,29.44,WNW,302,4.9,10.4,100,0.00,OVC,,0.00,WeatherDisplay:10.37,2013-11-01 11:25:00,
2013-11-01 06:30:00,40.2,40.2,29.44,SSW,204,5.5,8.4,100,0.00,OVC,,0.00,WeatherDisplay:10.37,2013-11-01 11:30:00,
2013-11-01 06:35:00,40.4,40.4,29.45,WNW,294,4.5,6.9,100,0.00,OVC,,0.00,WeatherDisplay:10.37,2013-11-01 11:35:00,
2013-11-01 06:40:00,40.5,40.5,29.44,West,260,6.5,11.5,100,0.00,OVC,,0.00,WeatherDisplay:10.37,2013-11-01 11:40:00,
2013-11-01 06:45:00,40.1,40.1,29.45,West,263,6.0,11.5,100,0.00,OVC,,0.00,WeatherDisplay:10.37,2013-11-01 11:45:00,
2013-11-01 06:50:00,40.4,40.4,29.45,WNW,283,6.8,9.2,100,0.00,OVC,,0.00,WeatherDisplay:10.37,2013-11-01 11:50:00,
2013-11-01 06:55:00,40.4,40.4,29.45,West,281,7.0,11.5,100,0.00,OVC,,0.00,WeatherDisplay:10.37,2013-11-01 11:55:00,
2013-11-01 07:00:00,40.4,40.4,29.45,West,260,5.1,10.6,100,0.00,OVC,,0.00,WeatherDisplay:10.37,2013-11-01 12:00:00,
2013-11-01 07:05:00,40.3,40.3,29.46,WNW,292,6.8,10.4,100,0.00,OVC,,0.00,WeatherDisplay:10.37,2013-11-01 12:05:00,
2013-11-01 07:10:00,40.3,40.3,29.46,West,266,5.6,10.4,100,0.00,OVC,,0.00,WeatherDisplay:10.37,2013-11-01 12:10:00,
2013-11-01 07:15:00,40.4,40.4,29.46,WSW,256,4.1,10.4,100,0.00,OVC,,0.00,WeatherDisplay:10.37,2013-11-01 12:15:00,
2013-11-01 07:20:00,40.6,40.6,29.45,West,263,4.1,6.9,100,0.00,OVC,,0.00,WeatherDisplay:10.37,2013-11-01 12:20:00,
2013-11-01 07:25:00,40.5,40.5,29.46,WNW,288,4.5,11.5,100,0.00,OVC,,0.00,WeatherDisplay:10.37,2013-11-01 12:25:00,
2013-11-01 07:30:00,40.8,40.8,29.46,WSW,252,2.7,4.6,100,0.00,OVC,,0.00,WeatherDisplay:10.37,2013-11-01 12:30:00,
2013-11-01 07:35:00,40.4,40.4,29.47,West,264,6.2,8.2,100,0.00,OVC,,0.00,WeatherDisplay:10.37,2013-11-01 12:35:00,
2013-11-01 07:40:00,40.5,40.5,29.46,SSW,211,5.4,8.1,100,0.00,OVC,,0.00,WeatherDisplay:10.37,2013-11-01 12:40:00,
2013-11-01 07:45:00,40.6,40.6,29.47,NNW,333,2.9,7.1,100,0.00,OVC,,0.00,WeatherDisplay:10.37,2013-11-01 12:45:00,
2013-11-01 07:50:00,40.6,40.6,29.47,SW,230,6.8,9.2,100,0.00,OVC,,0.00,WeatherDisplay:10.37,2013-11-01 12:50:00,
2013-11-01 07:55:00,40.7,40.7,29.47,WNW,284,5.1,8.1,100,0.00,OVC,,0.00,WeatherDisplay:10.37,2013-11-01 12:55:00,
2013-11-01 08:00:00,40.8,40.8,29.48,SW,222,5.0,9.2,100,0.00,OVC,,0.00,WeatherDisplay:10.37,2013-11-01 13:00:00,
2013-11-01 08:05:00,40.6,40.6,29.48,SW,233,4.0,9.2,100,0.00,OVC,,0.00,WeatherDisplay:10.37,2013-11-01 13:05:00,
2013-11-01 08:10:00,40.7,40.7,29.48,SSW,213,5.6,9.2,100,0.00,OVC,,0.00,WeatherDisplay:10.37,2013-11-01 13:10:00,
2013-11-01 08:15:00,40.8,40.8,29.48,NW,304,6.5,10.4,100,0.00,OVC,,0.00,WeatherDisplay:10.37,2013-11-01 13:15:00,
2013-11-01 08:20:00,40.7,40.7,29.49,NW,311,3.3,5.8,100,0.00,OVC,,0.00,WeatherDisplay:10.37,2013-11-01 13:20:00,
2013-11-01 08:25:00,41.0,41.0,29.49,WSW,246,3.9,5.9,100,0.00,OVC,,0.00,WeatherDisplay:10.37,2013-11-01 13:25:00,
2013-11-01 08:30:00,40.6,40.6,29.50,NW,309,6.9,10.6,100,0.00,OVC,,0.00,WeatherDisplay:10.37,2013-11-01 13:30:00,
2013-11-01 08:35:00,40.7,40.7,29.50,WNW,284,7.3,11.5,100,0.00,OVC,,0.00,WeatherDisplay:10.37,2013-11-01 13:35:00,
2013-11-01 08:40:00,41.0,41.0,29.50,NNW,342,2.2,4.6,100,0.00,OVC,,0.00,WeatherDisplay:10.37,2013-11-01 13:40:00,
2013-11-01 08:45:00,41.2,41.2,29.50,WNW,300,3.9,9.8,100,0.00,OVC,,0.00,WeatherDisplay:10.37,2013-11-01 13:45:00,
2013-11-01 08:50:00,41.2,41.2,29.51,WSW,249,3.8,5.8,100,0.00,OVC,,0.00,WeatherDisplay:10.37,2013-11-01 13:50:00,
2013-11-01 08:55:00,41.0,41.0,29.51,West,259,4.2,6.9,100,0.00,OVC,,0.00,WeatherDisplay:10.37,2013-11-01 13:55:00,
2013-11-01 09:01:00,41.1,41.1,29.51,WNW,301,3.6,7.1,100,0.00,OVC,,0.00,WeatherDisplay:10.37,2013-11-01 14:01:00,
2013-11-01 09:06:00,41.0,41.0,29.51,WSW,256,4.5,6.9,100,0.00,OVC,,0.00,WeatherDisplay:10.37,2013-11-01 14:06:00,
2013-11-01 09:11:00,41.1,41.1,29.51,SSW,201,3.6,5.8,100,0.00,OVC,,0.00,WeatherDisplay:10.37,2013-11-01 14:11:00,
2013-11-01 09:16:00,41.1,41.1,29.52,WSW,253,6.1,7.7,100,0.00,OVC,,0.00,WeatherDisplay:10.37,2013-11-01 14:16:00,
2013-11-01 09:21:00,41.2,41.2,29.52,NW,311,4.6,5.8,100,0.00,OVC,,0.00,WeatherDisplay:10.37,2013-11-01 14:21:00,
2013-11-01 09:26:00,41.2,41.2,29.51,WSW,254,5.0,10.4,100,0.00,OVC,,0.00,WeatherDisplay:10.37,2013-11-01 14:26:00,
2013-11-01 09:31:00,41.6,41.6,29.52,West,259,0.9,4.6,100,0.00,OVC,,0.00,WeatherDisplay:10.37,2013-11-01 14:31:00,
2013-11-01 09:35:00,41.4,41.4,29.51,WNW,288,6.3,6.9,100,0.00,OVC,,0.00,WeatherDisplay:10.37,2013-11-01 14:35:00,
2013-11-01 09:40:00,41.6,41.6,29.51,West,260,5.4,12.7,100,0.00,OVC,,0.00,WeatherDisplay:10.37,2013-11-01 14:40:00,
2013-11-01 09:45:00,41.5,41.5,29.51,WNW,300,4.3,6.0,100,0.00,OVC,,0.00,WeatherDisplay:10.37,2013-11-01 14:45:00,
2013-11-01 09:50:00,41.2,41.2,29.51,WSW,252,5.8,9.2,100,0.00,OVC,,0.00,WeatherDisplay:10.37,2013-11-01 14:50:00,
2013-11-01 09:55:00,41.7,41.7,29.51,NW,321,7.4,10.4,100,0.00,OVC,,0.00,WeatherDisplay:10.37,2013-11-01 14:55:00,
2013-11-01 10:00:00,41.6,41.6,29.51,WNW,290,5.8,8.1,100,0.00,OVC,,0.00,WeatherDisplay:10.37,2013-11-01 15:00:00,
2013-11-01 10:05:00,41.8,41.8,29.51,NNW,343,6.0,9.2,100,0.00,OVC,,0.00,WeatherDisplay:10.37,2013-11-01 15:05:00,
2013-11-01 10:10:00,42.1,42.1,29.51,WNW,287,6.0,7.5,100,0.00,OVC,,0.00,WeatherDisplay:10.37,2013-11-01 15:10:00,
2013-11-01 10:15:00,41.9,41.9,29.51,WNW,302,5.0,11.5,100,0.00,OVC,,0.00,WeatherDisplay:10.37,2013-11-01 15:15:00,
2013-11-01 10:20:00,42.2,42.2,29.51,NW,318,2.0,5.8,100,0.00,OVC,,0.00,WeatherDisplay:10.37,2013-11-01 15:20:00,
2013-11-01 10:25:00,42.1,42.1,29.51,West,260,4.2,10.4,100,0.00,OVC,,0.00,WeatherDisplay:10.37,2013-11-01 15:25:00,
2013-11-01 10:30:00,42.2,42.2,29.52,WSW,237,7.3,9.2,100,0.00,OVC,,0.00,WeatherDisplay:10.37,2013-11-01 15:30:00,
2013-11-01 10:35:00,42.4,42.4,29.52,West,260,5.9,13.8,100,0.00,OVC,,0.00,WeatherDisplay:10.37,2013-11-01 15:35:00,
2013-11-01 10:40:00,42.5,42.5,29.52,SW,235,5.3,9.2,100,0.00,OVC,,0.00,WeatherDisplay:10.37,2013-11-01 15:40:00,
2013-11-01 10:45:00,42.6,42.6,29.52,NW,304,4.8,8.1,100,0.00,OVC,,0.00,WeatherDisplay:10.37,2013-11-01 15:45:00,
2013-11-01 10:50:00,42.4,42.4,29.53,NW,304,5.6,18.4,100,0.00,OVC,,0.00,WeatherDisplay:10.37,2013-11-01 15:50:00,
2013-11-01 10:55:00,42.4,42.4,29.53,WNW,287,6.3,11.5,100,0.00,OVC,,0.00,WeatherDisplay:10.37,2013-11-01 15:55:00,
2013-11-01 11:00:00,42.5,42.5,29.53,NW,314,5.7,15.0,100,0.00,OVC,,0.00,WeatherDisplay:10.37,2013-11-01 16:00:00,
2013-11-01 11:05:00,42.7,42.7,29.54,NNW,332,3.8,9.2,100,0.00,OVC,,0.00,WeatherDisplay:10.37,2013-11-01 16:05:00,
2013-11-01 11:10:00,42.7,42.7,29.54,WNW,302,5.4,9.2,100,0.00,OVC,,0.00,WeatherDisplay:10.37,2013-11-01 16:10:00,
2013-11-01 11:15:00,42.8,42.8,29.54,SSW,195,5.1,11.5,100,0.00,OVC,,0.00,WeatherDisplay:10.37,2013-11-01 16:15:00,
2013-11-01 11:20:00,43.0,43.0,29.54,NW,309,4.7,8.1,100,0.00,OVC,,0.00,WeatherDisplay:10.37,2013-11-01 16:20:00,
2013-11-01 11:25:00,43.3,43.3,29.55,WNW,302,4.6,8.1,100,0.00,OVC,,0.00,WeatherDisplay:10.37,2013-11-01 16:25:00,
2013-11-01 11:30:00,43.2,43.2,29.55,North,357,4.4,9.2,100,0.00,OVC,,0.00,WeatherDisplay:10.37,2013-11-01 16:30:00,
2013-11-01 11:35:00,43.5,43.5,29.55,NW,322,2.6,6.9,100,0.00,OVC,,0.00,WeatherDisplay:10.37,2013-11-01 16:35:00,
2013-11-01 11:40:00,43.7,43.7,29.55,NNW,328,4.9,4.9,100,0.00,OVC,,0.00,WeatherDisplay:10.37,2013-11-01 16:40:00,
2013-11-01 11:45:00,43.7,43.7,29.55,NW,307,4.1,10.4,100,0.00,OVC,,0.00,WeatherDisplay:10.37,2013-11-01 16:45:00,
2013-11-01 11:50:00,43.8,43.8,29.55,WNW,295,5.9,8.2,100,0.00,OVC,,0.00,WeatherDisplay:10.37,2013-11-01 16:50:00,
2013-11-01 11:55:00,43.4,43.4,29.56,NW,312,8.9,10.4,100,0.00,OVC,,0.00,WeatherDisplay:10.37,2013-11-01 16:55:00,
2013-11-01 12:00:00,43.7,43.7,29.55,WNW,283,8.0,8.1,100,0.00,OVC,,0.00,WeatherDisplay:10.37,2013-11-01 17:00:00,
2013-11-01 12:05:00,44.2,44.2,29.56,NW,316,4.3,9.2,100,0.00,OVC,,0.00,WeatherDisplay:10.37,2013-11-01 17:05:00,
2013-11-01 12:10:00,44.1,44.1,29.56,WNW,300,4.4,12.7,100,0.00,OVC,,0.00,WeatherDisplay:10.37,2013-11-01 17:10:00,
2013-11-01 12:15:00,44.1,43.8,29.57,West,270,5.8,8.1,99,0.00,OVC,,0.00,WeatherDisplay:10.37,2013-11-01 17:15:00,
2013-11-01 12:20:00,44.1,43.8,29.56,WNW,300,2.9,4.7,99,0.00,OVC,,0.00,WeatherDisplay:10.37,2013-11-01 17:20:00,
2013-11-01 12:25:00,44.0,43.7,29.57,WSW,240,7.0,11.5,99,0.00,OVC,,0.00,WeatherDisplay:10.37,2013-11-01 17:25:00,
2013-11-01 12:30:00,43.8,43.3,29.57,WNW,291,8.4,13.8,98,0.00,OVC,,0.00,WeatherDisplay:10.37,2013-11-01 17:30:00,
2013-11-01 12:35:00,43.9,43.4,29.57,West,259,5.3,10.4,98,0.00,OVC,,0.00,WeatherDisplay:10.37,2013-11-01 17:35:00,
2013-11-01 12:40:00,44.2,43.7,29.57,WNW,291,4.1,8.1,98,0.00,OVC,,0.00,WeatherDisplay:10.37,2013-11-01 17:40:00,
2013-11-01 12:45:00,44.4,43.9,29.57,West,280,3.2,6.9,98,0.00,OVC,,0.00,WeatherDisplay:10.37,2013-11-01 17:45:00,
2013-11-01 12:50:00,44.3,43.5,29.57,WSW,254,5.8,6.9,97,0.00,OVC,,0.00,WeatherDisplay:10.37,2013-11-01 17:50:00,
2013-11-01 12:55:00,44.3,43.2,29.57,WNW,300,7.9,10.4,96,0.00,OVC,,0.00,WeatherDisplay:10.37,2013-11-01 17:55:00,
2013-11-01 13:00:00,44.4,43.3,29.57,West,276,4.0,13.8,96,0.00,OVC,,0.00,WeatherDisplay:10.37,2013-11-01 18:00:00,
2013-11-01 13:05:00,44.5,43.2,29.57,NW,315,6.1,9.2,95,0.00,OVC,,0.00,WeatherDisplay:10.37,2013-11-01 18:05:00,
2013-11-01 13:10:00,44.7,43.4,29.57,West,276,3.5,8.1,95,0.00,OVC,,0.00,WeatherDisplay:10.37,2013-11-01 18:10:00,
2013-11-01 13:15:00,44.8,43.5,29.57,North,359,3.5,10.4,95,0.00,OVC,,0.00,WeatherDisplay:10.37,2013-11-01 18:15:00,
2013-11-01 13:20:00,45.0,43.4,29.57,WSW,252,3.3,9.2,94,0.00,OVC,,0.00,WeatherDisplay:10.37,2013-11-01 18:20:00,
2013-11-01 13:25:00,44.9,43.3,29.57,NW,326,5.0,5.8,94,0.00,OVC,,0.00,WeatherDisplay:10.37,2013-11-01 18:25:00,
2013-11-01 13:30:00,45.0,43.1,29.57,WSW,247,5.7,9.2,93,0.00,OVC,,0.00,WeatherDisplay:10.37,2013-11-01 18:30:00,
2013-11-01 13:35:00,45.3,43.7,29.57,WNW,295,4.4,11.5,94,0.00,OVC,,0.00,WeatherDisplay:10.37,2013-11-01 18:35:00,
2013-11-01 13:40:00,45.1,43.2,29.57,WNW,288,6.6,9.2,93,0.00,OVC,,0.00,WeatherDisplay:10.37,2013-11-01 18:40:00,
2013-11-01 13:45:00,45.2,43.6,29.57,NW,326,4.8,12.9,94,0.00,OVC,,0.00,WeatherDisplay:10.37,2013-11-01 18:45:00,
2013-11-01 13:50:00,45.0,43.1,29.58,NW,307,6.4,6.9,93,0.00,OVC,,0.00,WeatherDisplay:10.37,2013-11-01 18:50:00,
2013-11-01 13:55:00,45.0,43.4,29.58,WNW,295,5.9,9.2,94,0.00,OVC,,0.00,WeatherDisplay:10.37,2013-11-01 18:55:00,
2013-11-01 14:00:00,45.0,43.9,29.58,NNW,328,4.9,8.1,96,0.00,OVC,,0.00,WeatherDisplay:10.37,2013-11-01 19:00:00,
2013-11-01 14:05:00,44.8,44.0,29.58,WSW,254,4.0,8.1,97,0.00,-RA,,0.00,WeatherDisplay:10.37,2013-11-01 19:05:00,
2013-11-01 14:10:00,44.7,44.2,29.58,NNW,336,5.1,8.1,98,0.00,-RA,,0.00,WeatherDisplay:10.37,2013-11-01 19:10:00,
2013-11-01 14:15:00,44.8,44.3,29.58,WNW,302,6.0,8.1,98,0.00,-RA,,0.00,WeatherDisplay:10.37,2013-11-01 19:15:00,
2013-11-01 14:20:00,45.0,44.7,29.58,NNW,328,4.8,6.9,99,0.00,-RA,,0.00,WeatherDisplay:10.37,2013-11-01 19:20:00,
2013-11-01 14:25:00,45.1,44.8,29.58,WNW,297,4.2,9.2,99,0.00,-RA,,0.00,WeatherDisplay:10.37,2013-11-01 19:25:00,
2013-11-01 14:30:00,45.2,45.2,29.59,NW,315,4.0,8.1,100,0.00,-RA,,0.00,WeatherDisplay:10.37,2013-11-01 19:30:00,
2013-11-01 14:35:00,45.4,45.4,29.59,WNW,290,3.2,9.2,100,0.00,-RA,,0.00,WeatherDisplay:10.37,2013-11-01 19:35:00,
2013-11-01 14:40:00,45.1,45.1,29.59,WNW,294,6.2,9.2,100,0.00,-RA,,0.00,WeatherDisplay:10.37,2013-11-01 19:40:00,
2013-11-01 14:45:00,45.1,45.1,29.59,South,189,3.7,9.2,100,0.00,-RA,,0.00,WeatherDisplay:10.37,2013-11-01 19:45:00,
2013-11-01 14:50:00,45.2,45.2,29.59,WNW,295,5.1,8.1,100,0.01,-RA,,0.01,WeatherDisplay:10.37,2013-11-01 19:50:00,
2013-11-01 14:55:00,45.0,45.0,29.59,WSW,240,7.2,8.1,100,0.01,-RA,,0.01,WeatherDisplay:10.37,2013-11-01 19:55:00,
2013-11-01 15:00:00,45.1,45.1,29.59,WNW,287,5.4,9.2,100,0.01,-RA,,0.01,WeatherDisplay:10.37,2013-11-01 20:00:00,
2013-11-01 15:05:00,45.0,45.0,29.59,West,261,5.9,9.2,100,0.01,-RA,,0.01,WeatherDisplay:10.37,2013-11-01 20:05:00,
2013-11-01 15:10:00,44.8,44.8,29.59,WNW,302,6.8,9.3,100,0.01,-RA,,0.01,WeatherDisplay:10.37,2013-11-01 20:10:00,
2013-11-01 15:15:00,45.0,45.0,29.60,WNW,295,4.7,9.3,100,0.01,-RA,,0.01,WeatherDisplay:10.37,2013-11-01 20:15:00,
2013-11-01 15:20:00,44.8,44.8,29.60,WSW,252,4.5,8.1,100,0.01,-RA,,0.01,WeatherDisplay:10.37,2013-11-01 20:20:00,
2013-11-01 15:25:00,44.6,44.6,29.60,WNW,285,5.9,8.1,100,0.01,-RA,,0.01,WeatherDisplay:10.37,2013-11-01 20:25:00,
2013-11-01 15:30:00,44.6,44.6,29.61,NNW,339,4.8,6.9,100,0.01,-RA,,0.01,WeatherDisplay:10.37,2013-11-01 20:30:00,
2013-11-01 15:35:00,44.4,44.4,29.61,WNW,283,4.1,6.9,100,0.01,-RA,,0.01,WeatherDisplay:10.37,2013-11-01 20:35:00,
2013-11-01 15:40:00,44.5,44.5,29.61,West,267,3.4,4.2,100,0.02,-RA,,0.02,WeatherDisplay:10.37,2013-11-01 20:40:00,
2013-11-01 15:45:00,44.5,44.5,29.61,WSW,254,3.1,5.8,100,0.02,-RA,,0.02,WeatherDisplay:10.37,2013-11-01 20:45:00,
2013-11-01 15:50:00,44.5,44.5,29.62,WNW,285,4.7,10.4,100,0.01,-RA,,0.02,WeatherDisplay:10.37,2013-11-01 20:50:00,
2013-11-01 15:55:00,44.6,44.6,29.62,South,175,3.2,4.6,100,0.01,-RA,,0.02,WeatherDisplay:10.37,2013-11-01 20:55:00,
2013-11-01 16:00:00,44.6,44.6,29.62,NW,322,3.5,5.8,100,0.01,-RA,,0.02,WeatherDisplay:10.37,2013-11-01 21:00:00,
2013-11-01 16:05:00,44.6,44.6,29.62,NW,322,6.1,9.2,100,0.01,-RA,,0.02,WeatherDisplay:10.37,2013-11-01 21:05:00,
2013-11-01 16:10:00,44.8,44.8,29.62,NNW,343,2.6,4.6,100,0.01,-RA,,0.02,WeatherDisplay:10.37,2013-11-01 21:10:00,
2013-11-01 16:15:00,44.7,44.7,29.62,West,271,3.7,5.8,100,0.01,-RA,,0.02,WeatherDisplay:10.37,2013-11-01 21:15:00,
2013-11-01 16:20:00,44.7,44.7,29.62,West,278,3.6,5.8,100,0.01,-RA,,0.02,WeatherDisplay:10.37,2013-11-01 21:20:00,
2013-11-01 16:25:00,44.7,44.7,29.62,WNW,302,2.5,5.8,100,0.01,-RA,,0.02,WeatherDisplay:10.37,2013-11-01 21:25:00,
2013-11-01 16:30:00,44.7,44.7,29.63,WNW,284,2.3,5.8,100,0.01,-RA,,0.02,WeatherDisplay:10.37,2013-11-01 21:30:00,
2013-11-01 16:35:00,44.7,44.7,29.63,West,267,3.1,6.9,100,0.01,-RA,,0.02,WeatherDisplay:10.37,2013-11-01 21:35:00,
2013-11-01 16:40:00,44.6,44.6,29.63,West,264,1.6,4.6,100,0.00,-RA,,0.02,WeatherDisplay:10.37,2013-11-01 21:40:00,
2013-11-01 16:45:00,44.5,44.5,29.63,WNW,292,3.9,3.9,100,0.00,-RA,,0.02,WeatherDisplay:10.37,2013-11-01 21:45:00,
2013-11-01 16:50:00,44.6,44.6,29.63,NW,319,2.4,3.8,100,0.00,-RA,,0.02,WeatherDisplay:10.37,2013-11-01 21:50:00,
2013-11-01 16:55:00,44.8,44.8,29.63,West,264,2.7,3.5,100,0.00,-RA,,0.02,WeatherDisplay:10.37,2013-11-01 21:55:00,
2013-11-01 17:00:00,44.7,44.7,29.63,NW,309,2.2,3.5,100,0.00,-RA,,0.02,WeatherDisplay:10.37,2013-11-01 22:00:00,
2013-11-01 17:05:00,44.7,44.7,29.63,West,271,2.8,4.6,100,0.00,OVC,,0.02,WeatherDisplay:10.37,2013-11-01 22:05:00,
2013-11-01 17:10:00,44.5,44.5,29.64,West,268,3.5,5.8,100,0.00,OVC,,0.02,WeatherDisplay:10.37,2013-11-01 22:10:00,
2013-11-01 17:15:00,44.6,44.6,29.64,WNW,301,1.1,3.5,100,0.00,OVC,,0.02,WeatherDisplay:10.37,2013-11-01 22:15:00,
2013-11-01 17:20:00,44.7,44.7,29.64,WNW,298,2.8,6.9,100,0.00,OVC,,0.02,WeatherDisplay:10.37,2013-11-01 22:20:00,
2013-11-01 17:25:00,44.6,44.6,29.64,WSW,252,2.9,6.7,100,0.00,OVC,,0.02,WeatherDisplay:10.37,2013-11-01 22:25:00,
2013-11-01 17:30:00,44.5,44.5,29.64,SW,235,1.2,4.6,100,0.00,OVC,,0.02,WeatherDisplay:10.37,2013-11-01 22:30:00,
2013-11-01 17:35:00,44.5,44.5,29.65,West,274,0.2,2.8,100,0.00,OVC,,0.02,WeatherDisplay:10.37,2013-11-01 22:35:00,
2013-11-01 17:40:00,44.4,44.4,29.64,WSW,240,3.3,4.6,100,0.00,OVC,,0.02,WeatherDisplay:10.37,2013-11-01 22:40:00,
2013-11-01 17:45:00,44.3,44.3,29.65,NNW,348,3.3,4.6,100,0.00,OVC,,0.02,WeatherDisplay:10.37,2013-11-01 22:45:00,
2013-11-01 17:50:00,44.2,44.2,29.65,West,264,2.7,4.6,100,0.00,OVC,,0.02,WeatherDisplay:10.37,2013-11-01 22:50:00,
2013-11-01 17:55:00,44.2,44.2,29.65,WSW,247,1.8,4.6,100,0.00,OVC,,0.02,WeatherDisplay:10.37,2013-11-01 22:55:00,
2013-11-01 18:00:00,44.2,44.2,29.65,WNW,298,1.9,2.9,100,0.00,OVC,,0.02,WeatherDisplay:10.37,2013-11-01 23:00:00,
2013-11-01 18:05:00,44.2,44.2,29.65,West,276,0.9,3.5,100,0.00,OVC,,0.02,WeatherDisplay:10.37,2013-11-01 23:05:00,
2013-11-01 18:10:00,44.2,44.2,29.65,South,178,1.2,3.5,100,0.00,OVC,,0.02,WeatherDisplay:10.37,2013-11-01 23:10:00,
2013-11-01 18:15:00,44.3,44.3,29.65,WSW,243,1.9,2.3,100,0.00,OVC,,0.02,WeatherDisplay:10.37,2013-11-01 23:15:00,
2013-11-01 18:20:00,44.1,44.1,29.65,WSW,247,2.5,2.5,100,0.00,OVC,,0.02,WeatherDisplay:10.37,2013-11-01 23:20:00,
2013-11-01 18:25:00,44.2,44.2,29.66,WSW,254,1.3,3.5,100,0.00,OVC,,0.02,WeatherDisplay:10.37,2013-11-01 23:25:00,
2013-11-01 18:30:00,43.9,43.9,29.66,SW,235,1.9,3.5,100,0.00,OVC,,0.02,WeatherDisplay:10.37,2013-11-01 23:30:00,
2013-11-01 18:35:00,43.9,43.9,29.66,SW,232,0.0,0.0,100,0.00,OVC,,0.02,WeatherDisplay:10.37,2013-11-01 23:35:00,
2013-11-01 18:40:00,43.7,43.7,29.67,SW,232,0.0,0.0,100,0.00,OVC,,0.02,WeatherDisplay:10.37,2013-11-01 23:40:00,
2013-11-01 18:45:00,43.6,43.6,29.67,SW,232,0.0,0.0,100,0.00,OVC,,0.02,WeatherDisplay:10.37,2013-11-01 23:45:00,
2013-11-01 18:50:00,43.7,43.7,29.67,SW,232,0.0,0.0,100,0.00,OVC,,0.02,WeatherDisplay:10.37,2013-11-01 23:50:00,
2013-11-01 18:55:00,43.5,43.5,29.67,SW,232,0.0,0.0,100,0.00,OVC,,0.02,WeatherDisplay:10.37,2013-11-01 23:55:00,
2013-11-01 19:00:00,43.3,43.3,29.67,SW,232,0.0,0.0,100,0.00,OVC,,0.02,WeatherDisplay:10.37,2013-11-02 00:00:00,
2013-11-01 19:05:00,43.0,43.0,29.67,SW,232,0.0,0.0,100,0.00,OVC,,0.02,WeatherDisplay:10.37,2013-11-02 00:05:00,
2013-11-01 19:10:00,43.2,43.2,29.67,SW,232,0.3,1.2,100,0.00,OVC,,0.02,WeatherDisplay:10.37,2013-11-02 00:10:00,
2013-11-01 19:15:00,43.3,43.3,29.68,SW,232,0.0,0.0,100,0.00,OVC,,0.02,WeatherDisplay:10.37,2013-11-02 00:15:00,
2013-11-01 19:20:00,43.2,43.2,29.68,SW,232,0.0,0.0,100,0.00,OVC,,0.02,WeatherDisplay:10.37,2013-11-02 00:20:00,
2013-11-01 19:25:00,43.2,43.2,29.68,NW,316,2.0,3.7,100,0.00,OVC,,0.02,WeatherDisplay:10.37,2013-11-02 00:25:00,
2013-11-01 19:30:00,43.0,43.0,29.69,SSW,212,0.0,0.0,100,0.00,OVC,,0.02,WeatherDisplay:10.37,2013-11-02 00:30:00,
2013-11-01 19:35:00,43.2,43.2,29.69,SW,236,0.9,3.5,100,0.00,OVC,,0.02,WeatherDisplay:10.37,2013-11-02 00:35:00,
2013-11-01 19:40:00,43.1,43.1,29.69,SW,220,0.0,0.0,100,0.00,OVC,,0.02,WeatherDisplay:10.37,2013-11-02 00:40:00,
2013-11-01 19:45:00,43.2,43.2,29.69,SW,229,1.0,2.3,100,0.00,OVC,,0.02,WeatherDisplay:10.37,2013-11-02 00:45:00,
2013-11-01 19:50:00,43.1,43.1,29.69,South,171,0.0,1.2,100,0.00,OVC,,0.02,WeatherDisplay:10.37,2013-11-02 00:50:00,
2013-11-01 19:55:00,43.0,43.0,29.69,NNW,332,0.5,2.4,100,0.00,OVC,,0.02,WeatherDisplay:10.37,2013-11-02 00:55:00,
2013-11-01 20:00:00,42.7,42.7,29.69,NNW,332,3.9,4.6,100,0.00,OVC,,0.02,WeatherDisplay:10.37,2013-11-02 01:00:00,
2013-11-01 20:05:00,42.8,42.8,29.69,WNW,291,2.1,4.6,100,0.00,OVC,,0.02,WeatherDisplay:10.37,2013-11-02 01:05:00,
2013-11-01 20:10:00,42.9,42.9,29.69,WNW,284,3.2,3.5,100,0.00,OVC,,0.02,WeatherDisplay:10.37,2013-11-02 01:10:00,
2013-11-01 20:15:00,43.0,43.0,29.69,NW,304,1.5,2.3,100,0.00,OVC,,0.02,WeatherDisplay:10.37,2013-11-02 01:15:00,
2013-11-01 20:20:00,42.7,42.7,29.69,NNW,329,3.2,3.5,100,0.00,OVC,,0.02,WeatherDisplay:10.37,2013-11-02 01:20:00,
2013-11-01 20:25:00,42.8,42.8,29.70,NNW,345,1.5,4.6,100,0.00,OVC,,0.02,WeatherDisplay:10.37,2013-11-02 01:25:00,
2013-11-01 20:30:00,42.7,42.7,29.70,WNW,297,2.3,3.5,100,0.00,OVC,,0.02,WeatherDisplay:10.37,2013-11-02 01:30:00,
2013-11-01 20:35:00,42.5,42.5,29.70,NW,305,2.2,3.4,100,0.00,OVC,,0.02,WeatherDisplay:10.37,2013-11-02 01:35:00,
2013-11-01 20:40:00,42.5,42.5,29.70,NNW,336,0.0,1.2,100,0.00,OVC,,0.02,WeatherDisplay:10.37,2013-11-02 01:40:00,
2013-11-01 20:45:00,42.4,42.4,29.70,WNW,294,1.7,3.5,100,0.00,OVC,,0.02,WeatherDisplay:10.37,2013-11-02 01:45:00,
2013-11-01 20:50:00,42.3,42.3,29.70,NNW,328,1.5,1.7,100,0.00,OVC,,0.02,WeatherDisplay:10.37,2013-11-02 01:50:00,
2013-11-01 20:55:00,42.3,42.3,29.70,NNW,342,2.1,3.0,100,0.00,OVC,,0.02,WeatherDisplay:10.37,2013-11-02 01:55:00,
2013-11-01 21:00:00,42.1,42.1,29.70,WNW,295,3.2,5.8,100,0.00,OVC,,0.02,WeatherDisplay:10.37,2013-11-02 02:00:00,
2013-11-01 21:05:00,42.0,42.0,29.70,NW,304,2.1,3.5,100,0.00,SCT,,0.02,WeatherDisplay:10.37,2013-11-02 02:05:00,
2013-11-01 21:10:00,42.0,42.0,29.70,NW,325,0.0,0.0,100,0.00,SCT,,0.02,WeatherDisplay:10.37,2013-11-02 02:10:00,
2013-11-01 21:15:00,41.8,41.8,29.70,NW,309,0.0,2.3,100,0.00,SCT,,0.02,WeatherDisplay:10.37,2013-11-02 02:15:00,
2013-11-01 21:20:00,41.7,41.7,29.70,NW,309,0.0,0.0,100,0.00,SCT,,0.02,WeatherDisplay:10.37,2013-11-02 02:20:00,
2013-11-01 21:25:00,41.5,41.5,29.70,NW,309,0.0,0.0,100,0.00,SCT,,0.02,WeatherDisplay:10.37,2013-11-02 02:25:00,
2013-11-01 21:30:00,41.4,41.4,29.70,NW,309,0.0,0.0,100,0.00,SCT,,0.02,WeatherDisplay:10.37,2013-11-02 02:30:00,
2013-11-01 21:35:00,41.1,41.1,29.71,NW,309,0.0,0.0,100,0.00,SCT,,0.02,WeatherDisplay:10.37,2013-11-02 02:35:00,
2013-11-01 21:40:00,40.9,40.9,29.71,NW,308,1.4,2.3,100,0.00,SCT,,0.02,WeatherDisplay:10.37,2013-11-02 02:40:00,
2013-11-01 21:45:00,40.8,40.8,29.71,NW,321,1.4,1.4,100,0.00,SCT,,0.02,WeatherDisplay:10.37,2013-11-02 02:45:00,
2013-11-01 21:50:00,40.8,40.8,29.72,NW,321,0.0,0.0,100,0.00,SCT,,0.02,WeatherDisplay:10.37,2013-11-02 02:50:00,
2013-11-01 21:55:00,40.7,40.7,29.72,ESE,122,3.0,3.5,100,0.00,SCT,,0.02,WeatherDisplay:10.37,2013-11-02 02:55:00,
2013-11-01 22:00:00,40.5,40.5,29.72,NE,54,2.6,6.9,100,0.00,SCT,,0.02,WeatherDisplay:10.37,2013-11-02 03:00:00,
2013-11-01 22:05:00,40.5,40.5,29.72,NNE,20,2.5,6.9,100,0.00,SCT,,0.02,WeatherDisplay:10.37,2013-11-02 03:05:00,
2013-11-01 22:10:00,40.6,40.6,29.72,NW,311,3.2,4.6,100,0.00,SCT,,0.02,WeatherDisplay:10.37,2013-11-02 03:10:00,
2013-11-01 22:15:00,40.6,40.6,29.72,NW,325,3.1,6.9,100,0.00,SCT,,0.02,WeatherDisplay:10.37,2013-11-02 03:15:00,
2013-11-01 22:20:00,40.2,40.2,29.72,NW,326,1.7,4.6,100,0.00,SCT,,0.02,WeatherDisplay:10.37,2013-11-02 03:20:00,
2013-11-01 22:25:00,40.3,40.3,29.72,NNW,328,2.3,3.5,100,0.00,SCT,,0.02,WeatherDisplay:10.37,2013-11-02 03:25:00,
2013-11-01 22:30:00,40.2,40.2,29.73,NW,304,1.0,3.5,100,0.00,SCT,,0.02,WeatherDisplay:10.37,2013-11-02 03:30:00,
2013-11-01 22:35:00,40.0,40.0,29.73,WNW,291,2.2,2.3,100,0.00,SCT,,0.02,WeatherDisplay:10.37,2013-11-02 03:35:00,
2013-11-01 22:40:00,39.9,39.9,29.73,NW,304,1.2,4.6,100,0.00,SCT,,0.02,WeatherDisplay:10.37,2013-11-02 03:40:00,
2013-11-01 22:45:00,39.9,39.9,29.73,WNW,292,1.3,1.4,100,0.00,SCT,,0.02,WeatherDisplay:10.37,2013-11-02 03:45:00,
2013-11-01 22:50:00,39.8,39.8,29.73,NW,318,1.7,3.5,100,0.00,SCT,,0.02,WeatherDisplay:10.37,2013-11-02 03:50:00,
2013-11-01 22:55:00,39.5,39.5,29.73,WNW,298,2.9,2.9,100,0.00,SCT,,0.02,WeatherDisplay:10.37,2013-11-02 03:55:00,
2013-11-01 23:00:00,39.2,39.2,29.73,NW,305,3.5,4.4,100,0.00,SCT,,0.02,WeatherDisplay:10.37,2013-11-02 04:00:00,
2013-11-01 23:01:00,39.3,39.3,29.73,WNW,288,3.8,5.8,100,0.00,CLR,,0.02,WeatherDisplay:10.37,2013-11-02 04:01:00,
2013-11-01 23:03:00,39.2,39.2,29.73,WNW,298,3.8,4.6,100,0.00,CLR,,0.02,WeatherDisplay:10.37,2013-11-02 04:03:00,
2013-11-01 23:08:00,39.1,39.1,29.73,NW,314,2.9,6.2,100,0.00,CLR,,0.02,WeatherDisplay:10.37,2013-11-02 04:08:00,
2013-11-01 23:13:00,39.2,39.2,29.73,NW,318,3.5,6.9,100,0.00,CLR,,0.02,WeatherDisplay:10.37,2013-11-02 04:13:00,
2013-11-01 23:18:00,39.1,39.1,29.73,NW,305,3.0,4.6,100,0.00,CLR,,0.02,WeatherDisplay:10.37,2013-11-02 04:18:00,
2013-11-01 23:23:00,39.1,39.1,29.73,WNW,288,3.5,4.6,100,0.00,CLR,,0.02,WeatherDisplay:10.37,2013-11-02 04:23:00,
2013-11-01 23:28:00,39.0,39.0,29.73,West,281,1.5,3.5,100,0.00,CLR,,0.02,WeatherDisplay:10.37,2013-11-02 04:28:00,
2013-11-01 23:33:00,39.2,39.2,29.73,WNW,301,3.4,5.0,100,0.00,CLR,,0.02,WeatherDisplay:10.37,2013-11-02 04:33:00,
2013-11-01 23:38:00,38.9,38.9,29.73,WSW,254,3.1,4.6,100,0.00,CLR,,0.02,WeatherDisplay:10.37,2013-11-02 04:38:00,
2013-11-01 23:43:00,38.8,38.8,29.73,WNW,302,3.0,4.6,100,0.00,CLR,,0.02,WeatherDisplay:10.37,2013-11-02 04:43:00,
2013-11-01 23:48:00,39.0,39.0,29.73,WNW,287,1.6,3.5,100,0.00,CLR,,0.02,WeatherDisplay:10.37,2013-11-02 04:48:00,
2013-11-01 23:53:00,38.5,38.5,29.73,West,278,3.0,4.6,100,0.00,CLR,,0.02,WeatherDisplay:10.37,2013-11-02 04:53:00,
2013-11-01 23:59:00,38.6,38.6,29.73,NNW,339,0.4,1.2,100,0.00,CLR,,0.02,WeatherDisplay:10.37,2013-11-02 04:59:00,